Time;durP1;ratioP1;P1;durP2;ratioP2;P2;SDS_P1;SDS_P2;PMS_P1;PMS_P2;Temp;Humidity;BMP_temperature;BMP_pressure;BME280_temperature;BME280_humidity;BME280_pressure;Samples;Min_cycle;Max_cycle;Signal;HPM_P1;HPM_P2
2022/06/05 00:00:07;;;;;;;18.13;9.82;;;25.20;78.10;;;;;;5118441;28;20192;-81
2022/06/05 00:02:48;;;;;;;22.33;10.45;;;25.10;78.30;;;;;;5116772;28;20197;-82
2022/06/05 00:05:22;;;;;;;17.73;9.55;;;25.10;78.40;;;;;;5114966;28;20196;-82
2022/06/05 00:07:56;;;;;;;18.30;9.95;;;25.10;78.50;;;;;;5114659;28;20192;-81
2022/06/05 00:10:27;;;;;;;19.48;10.68;;;25.00;78.50;;;;;;5117188;27;20200;-81
2022/06/05 00:13:12;;;;;;;19.45;10.73;;;25.00;78.50;;;;;;5112506;28;20196;-79
2022/06/05 00:15:40;;;;;;;20.52;9.38;;;25.00;78.80;;;;;;5120100;27;20293;-82
2022/06/05 00:18:08;;;;;;;21.55;9.93;;;25.00;78.80;;;;;;5120383;27;20994;-81
2022/06/05 00:20:37;;;;;;;18.30;9.32;;;25.00;79.00;;;;;;5126201;27;20200;-82
2022/06/05 00:23:05;;;;;;;18.70;9.10;;;24.90;79.00;;;;;;5121929;27;20202;-82
2022/06/05 00:25:42;;;;;;;17.15;9.43;;;24.90;79.10;;;;;;5126186;27;20196;-81
2022/06/05 00:28:20;;;;;;;13.02;9.32;;;24.90;79.10;;;;;;5124571;27;20279;-82
2022/06/05 00:31:01;;;;;;;14.63;8.60;;;24.90;79.10;;;;;;5123041;27;20196;-81
2022/06/05 00:33:35;;;;;;;26.70;10.45;;;24.90;79.30;;;;;;5119693;27;20188;-82
2022/06/05 00:36:14;;;;;;;12.02;8.35;;;24.90;79.40;;;;;;5117670;27;20276;-81
2022/06/05 00:38:50;;;;;;;16.77;9.38;;;24.80;79.50;;;;;;5119392;27;20823;-81
2022/06/05 00:41:35;;;;;;;14.75;8.25;;;24.80;79.60;;;;;;5116351;27;20200;-80
2022/06/05 00:44:06;;;;;;;13.43;8.77;;;24.80;79.50;;;;;;5121571;27;20211;-81
2022/06/05 00:46:38;;;;;;;12.98;7.90;;;24.80;79.40;;;;;;5123256;27;20195;-81
2022/06/05 00:49:08;;;;;;;15.20;9.50;;;24.80;79.50;;;;;;5121659;27;20192;-82
2022/06/05 00:51:36;;;;;;;19.50;8.45;;;24.80;79.70;;;;;;5126292;27;20188;-81
2022/06/05 00:54:05;;;;;;;14.23;7.82;;;24.80;79.70;;;;;;5123080;27;20868;-81
2022/06/05 00:56:33;;;;;;;17.30;9.68;;;24.70;79.70;;;;;;5122491;27;20189;-80
2022/06/05 00:59:02;;;;;;;12.98;8.25;;;24.70;79.70;;;;;;5123897;27;20192;-79
2022/06/05 01:01:33;;;;;;;18.60;9.52;;;24.70;79.70;;;;;;5121226;27;20227;-81
2022/06/05 01:04:02;;;;;;;15.77;9.02;;;24.70;79.70;;;;;;5122925;27;20204;-82
2022/06/05 01:06:31;;;;;;;18.58;8.52;;;24.70;79.70;;;;;;5119914;27;20219;-80
2022/06/05 01:09:00;;;;;;;13.02;8.20;;;24.70;79.70;;;;;;5122517;27;20192;-82
2022/06/05 01:11:38;;;;;;;17.75;9.38;;;24.70;79.70;;;;;;5120666;27;20201;-81
2022/06/05 01:14:14;;;;;;;17.42;9.20;;;24.70;79.80;;;;;;5125902;27;20192;-81
2022/06/05 01:16:51;;;;;;;15.52;8.85;;;24.70;79.90;;;;;;5119644;27;20592;-81
2022/06/05 01:19:41;;;;;;;15.60;9.05;;;24.70;80.00;;;;;;5124705;27;20199;-80
2022/06/05 01:22:52;;;;;;;20.95;9.05;;;24.70;80.10;;;;;;5126101;27;20208;-81
2022/06/05 01:25:45;;;;;;;15.00;8.20;;;24.60;80.00;;;;;;5125559;27;20203;-81
2022/06/05 01:28:18;;;;;;;18.58;9.20;;;24.60;80.00;;;;;;5123275;27;20196;-81
2022/06/05 01:30:50;;;;;;;17.73;8.45;;;24.60;80.00;;;;;;5121793;27;20190;-80
2022/06/05 01:33:24;;;;;;;15.15;8.43;;;24.60;80.10;;;;;;5124616;27;20664;-81
2022/06/05 01:36:05;;;;;;;20.05;8.68;;;24.60;80.20;;;;;;5120325;27;20203;-81
2022/06/05 01:38:43;;;;;;;14.13;8.55;;;24.60;80.40;;;;;;5119421;27;20188;-80
2022/06/05 01:41:17;;;;;;;15.02;8.60;;;24.60;80.70;;;;;;5118887;27;20184;-81
2022/06/05 01:43:49;;;;;;;15.55;8.50;;;24.60;80.70;;;;;;5122290;27;20215;-81
2022/06/05 01:46:24;;;;;;;16.25;7.80;;;24.50;80.60;;;;;;5118960;27;20279;-81
2022/06/05 01:48:59;;;;;;;14.63;8.02;;;24.50;80.50;;;;;;5122448;27;20270;-80
2022/06/05 01:51:31;;;;;;;13.88;8.13;;;24.50;80.60;;;;;;5123144;27;20196;-80
2022/06/05 01:54:06;;;;;;;20.02;8.40;;;24.50;80.60;;;;;;5123092;27;20195;-81
2022/06/05 01:56:40;;;;;;;21.52;8.50;;;24.50;80.50;;;;;;5123732;27;20187;-81
2022/06/05 01:59:14;;;;;;;11.85;8.05;;;24.60;80.40;;;;;;5124238;27;20200;-82
2022/06/05 02:01:48;;;;;;;15.95;8.70;;;24.50;80.20;;;;;;5120616;27;20204;-80
2022/06/05 02:04:21;;;;;;;17.30;8.35;;;24.50;80.00;;;;;;5123744;27;20192;-81
2022/06/05 02:06:57;;;;;;;12.23;8.20;;;24.60;80.00;;;;;;5117764;27;20200;-81
2022/06/05 02:09:32;;;;;;;14.50;8.10;;;24.60;79.80;;;;;;5121161;27;20188;-81
2022/06/05 02:12:03;;;;;;;13.13;8.10;;;24.60;79.70;;;;;;5121767;27;20180;-80
2022/06/05 02:14:32;;;;;;;14.95;8.45;;;24.60;79.60;;;;;;5113423;27;20184;-81
2022/06/05 02:17:01;;;;;;;14.48;8.38;;;24.50;79.50;;;;;;5130533;27;20208;-81
2022/06/05 02:19:29;;;;;;;11.68;7.75;;;24.60;79.50;;;;;;5120687;27;20200;-81
2022/06/05 02:22:03;;;;;;;13.20;7.95;;;24.60;79.60;;;;;;5127294;27;20203;-80
2022/06/05 02:24:33;;;;;;;17.83;8.60;;;24.60;79.60;;;;;;5125931;27;20188;-80
2022/06/05 02:27:07;;;;;;;13.45;8.27;;;24.60;79.60;;;;;;5122397;27;20200;-80
2022/06/05 02:29:37;;;;;;;14.20;8.75;;;24.60;79.60;;;;;;5121717;27;20196;-81
2022/06/05 02:32:32;;;;;;;21.23;8.48;;;24.60;79.70;;;;;;5124549;27;20646;-80
2022/06/05 02:35:11;;;;;;;16.60;8.80;;;24.60;79.80;;;;;;5123709;27;20188;-81
2022/06/05 02:37:50;;;;;;;14.18;8.38;;;24.60;79.90;;;;;;5120886;27;20818;-81
2022/06/05 02:40:26;;;;;;;13.23;8.05;;;24.60;80.00;;;;;;5119724;27;20187;-81
2022/06/05 02:43:07;;;;;;;17.10;8.48;;;24.60;80.00;;;;;;5123240;27;20303;-81
2022/06/05 02:45:42;;;;;;;15.23;8.43;;;24.60;80.10;;;;;;5121865;27;20233;-81
2022/06/05 02:48:19;;;;;;;17.08;9.05;;;24.60;80.20;;;;;;5114348;27;20642;-81
2022/06/05 02:50:55;;;;;;;14.32;7.68;;;24.60;80.30;;;;;;5125240;27;20199;-81
2022/06/05 02:53:23;;;;;;;19.92;7.93;;;24.60;80.40;;;;;;5127093;27;20183;-81
2022/06/05 02:55:51;;;;;;;15.52;8.90;;;24.60;80.50;;;;;;5124821;27;20784;-81
2022/06/05 02:58:21;;;;;;;16.10;8.02;;;24.50;80.50;;;;;;5122285;27;20747;-81
2022/06/05 03:03:32;;;;;;;13.77;8.20;;;24.60;80.50;;;;;;5121599;27;20216;-81
2022/06/05 03:06:04;;;;;;;13.57;8.43;;;24.60;80.50;;;;;;5120474;27;20192;-80
2022/06/05 03:08:32;;;;;;;12.90;8.43;;;24.60;80.30;;;;;;5123813;27;20196;-81
2022/06/05 03:11:01;;;;;;;16.10;8.13;;;24.60;80.30;;;;;;5124174;27;20192;-81
2022/06/05 03:13:31;;;;;;;14.15;8.10;;;24.60;80.40;;;;;;5120354;27;20192;-81
2022/06/05 03:15:59;;;;;;;13.00;8.32;;;24.70;80.50;;;;;;5125584;27;20220;-81
2022/06/05 03:18:28;;;;;;;15.75;8.10;;;24.70;80.50;;;;;;5124810;27;20196;-81
2022/06/05 03:20:57;;;;;;;14.52;7.80;;;24.70;80.50;;;;;;5125013;27;20226;-80
2022/06/05 03:23:26;;;;;;;15.85;7.93;;;24.70;80.30;;;;;;5127181;27;20212;-81
2022/06/05 03:25:55;;;;;;;10.63;7.53;;;24.70;80.30;;;;;;5123379;27;20196;-81
2022/06/05 03:28:24;;;;;;;20.50;9.02;;;24.70;80.50;;;;;;5118256;27;20200;-81
2022/06/05 03:30:54;;;;;;;16.52;8.95;;;24.80;80.80;;;;;;5130233;27;20210;-81
2022/06/05 03:33:22;;;;;;;14.93;8.45;;;24.70;80.80;;;;;;5127337;27;20762;-81
2022/06/05 03:35:50;;;;;;;12.50;7.88;;;24.80;81.00;;;;;;5119915;27;20605;-81
2022/06/05 03:38:19;;;;;;;12.88;8.48;;;24.70;80.80;;;;;;5119356;27;20933;-81
2022/06/05 03:40:48;;;;;;;14.55;8.07;;;24.70;80.80;;;;;;5127944;27;20200;-81
2022/06/05 03:43:17;;;;;;;11.70;7.88;;;24.70;80.80;;;;;;5121751;27;20692;-81
2022/06/05 03:45:46;;;;;;;15.05;9.00;;;24.70;80.90;;;;;;5123889;27;20272;-81
2022/06/05 03:48:16;;;;;;;15.57;8.43;;;24.70;81.00;;;;;;5119987;27;20308;-81
2022/06/05 03:50:44;;;;;;;14.05;7.57;;;24.70;81.00;;;;;;5126022;27;20639;-81
2022/06/05 03:53:13;;;;;;;14.40;7.93;;;24.70;81.00;;;;;;5126734;27;20188;-80
2022/06/05 03:55:41;;;;;;;16.75;8.40;;;24.70;81.00;;;;;;5131261;27;20192;-81
2022/06/05 03:58:09;;;;;;;13.05;8.60;;;24.70;81.00;;;;;;5128079;27;20231;-81
2022/06/05 04:00:38;;;;;;;14.95;8.85;;;24.70;81.00;;;;;;5123689;27;20192;-81
2022/06/05 04:03:07;;;;;;;14.52;8.68;;;24.70;81.30;;;;;;5122807;27;20837;-81
2022/06/05 04:05:36;;;;;;;18.15;8.70;;;24.80;81.50;;;;;;5130326;27;20199;-81
2022/06/05 04:08:05;;;;;;;12.85;8.45;;;24.70;81.50;;;;;;5127059;27;20639;-80
2022/06/05 04:10:35;;;;;;;11.38;8.25;;;24.80;81.60;;;;;;5126085;27;20202;-81
2022/06/05 04:13:04;;;;;;;16.20;8.07;;;24.80;81.60;;;;;;5131602;27;20184;-81
2022/06/05 04:15:32;;;;;;;14.35;8.07;;;24.80;81.90;;;;;;5120062;27;20220;-81
2022/06/05 04:18:01;;;;;;;13.25;7.10;;;24.80;81.90;;;;;;5125657;27;20193;-81
2022/06/05 04:20:29;;;;;;;14.00;7.15;;;24.80;82.00;;;;;;5130710;27;20558;-81
2022/06/05 04:22:59;;;;;;;14.05;8.18;;;24.80;81.90;;;;;;5125315;27;20225;-81
2022/06/05 04:25:27;;;;;;;14.85;7.15;;;24.80;81.90;;;;;;5129682;27;20672;-82
2022/06/05 04:27:57;;;;;;;15.02;7.07;;;24.80;81.90;;;;;;5126105;27;20204;-80
2022/06/05 04:30:26;;;;;;;10.80;6.03;;;24.80;81.90;;;;;;5119340;27;20207;-80
2022/06/05 04:32:54;;;;;;;11.75;6.57;;;24.80;81.90;;;;;;5124956;27;20211;-81
2022/06/05 04:35:23;;;;;;;10.88;6.35;;;24.80;81.90;;;;;;5120348;27;20200;-81
2022/06/05 04:37:52;;;;;;;12.18;6.30;;;24.80;82.00;;;;;;5128680;27;20201;-80
2022/06/05 04:40:22;;;;;;;12.43;5.82;;;24.80;82.80;;;;;;5132954;27;20192;-80
2022/06/05 04:42:50;;;;;;;10.40;5.50;;;24.80;82.00;;;;;;5124342;27;20290;-80
2022/06/05 04:45:18;;;;;;;9.73;5.47;;;24.90;82.10;;;;;;5126352;27;20207;-83
2022/06/05 04:47:47;;;;;;;9.52;5.00;;;24.90;81.90;;;;;;5126465;27;20193;-80
2022/06/05 04:50:15;;;;;;;10.00;5.18;;;24.90;81.60;;;;;;5131551;27;20206;-80
2022/06/05 04:52:44;;;;;;;8.13;4.95;;;24.90;81.50;;;;;;5125877;27;21661;-79
2022/06/05 04:55:12;;;;;;;9.30;5.00;;;24.90;81.60;;;;;;5128132;27;20195;-81
2022/06/05 04:57:43;;;;;;;10.30;5.03;;;24.90;81.40;;;;;;5119828;27;20191;-80
2022/06/05 05:00:13;;;;;;;9.57;5.50;;;24.90;81.30;;;;;;5129435;27;20192;-80
2022/06/05 05:02:41;;;;;;;10.48;5.28;;;25.00;81.40;;;;;;5124101;27;20208;-80
2022/06/05 05:05:10;;;;;;;10.93;5.57;;;25.00;81.10;;;;;;5128504;27;20219;-80
2022/06/05 05:07:39;;;;;;;9.65;5.07;;;25.00;81.00;;;;;;5121661;27;20208;-81
2022/06/05 05:10:08;;;;;;;7.78;5.07;;;25.00;80.80;;;;;;5125362;27;20758;-80
2022/06/05 05:12:37;;;;;;;9.52;5.13;;;25.10;80.50;;;;;;5130195;27;20232;-79
2022/06/05 05:15:07;;;;;;;10.30;5.40;;;25.10;79.90;;;;;;5124611;27;20720;-79
2022/06/05 05:17:36;;;;;;;10.38;4.93;;;25.20;79.80;;;;;;5119829;27;20203;-81
2022/06/05 05:20:05;;;;;;;10.70;5.00;;;25.20;79.50;;;;;;5124672;27;20196;-80
2022/06/05 05:22:37;;;;;;;11.75;5.45;;;25.20;79.40;;;;;;5127926;27;20192;-79
2022/06/05 05:25:09;;;;;;;9.32;5.30;;;25.30;80.40;;;;;;5129575;27;20208;-81
2022/06/05 05:27:39;;;;;;;10.73;6.07;;;25.30;79.70;;;;;;5123609;27;20204;-81
2022/06/05 05:30:12;;;;;;;9.48;5.88;;;25.30;79.50;;;;;;5132110;27;20228;-82
2022/06/05 05:32:40;;;;;;;12.70;6.57;;;25.40;79.80;;;;;;5126190;27;20188;-80
2022/06/05 05:35:10;;;;;;;7.78;5.13;;;25.40;79.80;;;;;;5128691;27;20196;-79
2022/06/05 05:37:38;;;;;;;8.05;5.45;;;25.50;80.00;;;;;;5120005;27;20200;-80
2022/06/05 05:42:54;;;;;;;14.18;5.95;;;25.60;80.10;;;;;;5119163;27;20189;-80
2022/06/05 05:45:24;;;;;;;12.13;4.95;;;25.70;80.00;;;;;;5125669;27;20216;-80
2022/06/05 05:47:52;;;;;;;9.00;5.28;;;25.70;79.90;;;;;;5119267;27;20238;-79
2022/06/05 05:50:21;;;;;;;12.90;5.50;;;25.80;79.70;;;;;;5130812;27;20191;-79
2022/06/05 05:52:49;;;;;;;9.48;5.35;;;25.80;79.60;;;;;;5127787;27;20228;-80
2022/06/05 05:55:42;;;;;;;8.13;5.07;;;25.90;79.70;;;;;;5119007;27;20200;-80
2022/06/05 05:58:11;;;;;;;9.10;5.18;;;26.00;79.30;;;;;;5119974;27;20207;-80
2022/06/05 06:00:41;;;;;;;7.75;4.35;;;26.00;79.30;;;;;;5125463;27;20200;-80
2022/06/05 06:03:09;;;;;;;6.93;4.63;;;26.10;79.30;;;;;;5131254;27;20188;-79
2022/06/05 06:05:38;;;;;;;10.00;4.57;;;26.10;78.90;;;;;;5139804;27;20216;-80
2022/06/05 06:08:08;;;;;;;9.70;4.80;;;26.20;78.90;;;;;;5124435;27;20203;-81
2022/06/05 06:10:36;;;;;;;8.95;4.45;;;26.20;78.90;;;;;;5123391;27;20207;-79
2022/06/05 06:13:05;;;;;;;8.57;5.30;;;26.30;79.10;;;;;;5119351;27;20188;-81
2022/06/05 06:15:34;;;;;;;8.63;5.28;;;26.40;79.20;;;;;;5123851;27;20222;-81
2022/06/05 06:18:04;;;;;;;8.68;5.88;;;26.50;79.00;;;;;;5127669;27;20649;-80
2022/06/05 06:20:32;;;;;;;8.73;5.57;;;26.50;79.00;;;;;;5133910;27;20211;-82
2022/06/05 06:23:00;;;;;;;18.23;6.47;;;26.60;79.00;;;;;;5122733;27;20192;-79
2022/06/05 06:25:29;;;;;;;9.60;5.93;;;26.70;78.80;;;;;;5126273;27;20295;-80
2022/06/05 06:27:57;;;;;;;13.90;5.28;;;26.70;78.60;;;;;;5133011;27;20191;-79
2022/06/05 06:30:25;;;;;;;7.80;5.25;;;26.80;78.40;;;;;;5139885;27;20568;-80
2022/06/05 06:32:55;;;;;;;8.15;5.53;;;26.90;78.30;;;;;;5122474;27;20638;-79
2022/06/05 06:35:25;;;;;;;11.73;5.90;;;27.00;78.20;;;;;;5128712;27;20203;-78
2022/06/05 06:37:53;;;;;;;8.80;5.35;;;27.10;78.30;;;;;;5129636;27;20211;-79
2022/06/05 06:40:21;;;;;;;9.02;5.72;;;27.10;77.80;;;;;;5128127;27;20786;-80
2022/06/05 06:42:50;;;;;;;10.15;4.78;;;27.20;77.60;;;;;;5122657;27;20192;-80
2022/06/05 06:45:18;;;;;;;6.47;4.25;;;27.30;77.50;;;;;;5123813;27;20680;-79
2022/06/05 06:47:48;;;;;;;6.20;4.70;;;27.30;77.30;;;;;;5129129;27;20231;-80
2022/06/05 06:50:16;;;;;;;8.30;4.35;;;27.40;76.20;;;;;;5124326;27;20202;-77
2022/06/05 06:52:46;;;;;;;7.10;4.05;;;27.50;76.20;;;;;;5129030;27;20192;-81
2022/06/05 06:55:17;;;;;;;7.55;4.32;;;27.50;76.00;;;;;;5133880;27;20221;-78
2022/06/05 06:57:46;;;;;;;7.93;5.22;;;27.60;76.10;;;;;;5125526;27;20195;-77
2022/06/05 07:00:21;;;;;;;7.40;4.43;;;27.60;76.00;;;;;;5126147;27;20303;-79
2022/06/05 07:02:50;;;;;;;10.18;5.40;;;27.70;76.00;;;;;;5130608;27;20645;-83
2022/06/05 07:05:18;;;;;;;11.05;5.47;;;27.80;76.40;;;;;;5122317;27;20646;-80
2022/06/05 07:07:48;;;;;;;6.78;5.00;;;27.80;76.10;;;;;;5124808;27;20196;-80
2022/06/05 07:10:16;;;;;;;9.48;5.95;;;27.90;76.30;;;;;;5123757;27;20693;-81
2022/06/05 07:12:47;;;;;;;9.52;5.28;;;27.90;76.30;;;;;;5129039;27;20208;-81
2022/06/05 07:15:16;;;;;;;6.63;5.38;;;28.00;76.20;;;;;;5126805;27;20224;-80
2022/06/05 07:17:44;;;;;;;9.63;4.75;;;28.00;76.10;;;;;;5120911;27;20196;-80
2022/06/05 07:20:13;;;;;;;6.32;4.70;;;28.10;76.10;;;;;;5121820;27;20191;-81
2022/06/05 07:22:42;;;;;;;8.18;5.22;;;28.20;75.80;;;;;;5125920;27;20207;-78
2022/06/05 07:25:13;;;;;;;6.47;4.82;;;28.20;75.50;;;;;;5133309;27;20211;-78
2022/06/05 07:27:41;;;;;;;7.28;4.10;;;28.30;75.60;;;;;;5122890;27;20203;-80
2022/06/05 07:30:12;;;;;;;8.57;4.13;;;28.40;75.40;;;;;;5131674;27;20188;-79
2022/06/05 07:32:41;;;;;;;7.55;5.03;;;28.40;75.00;;;;;;5132220;27;20187;-80
2022/06/05 07:35:11;;;;;;;8.52;4.05;;;28.50;74.80;;;;;;5147959;27;20195;-81
2022/06/05 07:37:40;;;;;;;7.90;4.45;;;28.60;74.60;;;;;;5138044;27;20184;-81
2022/06/05 07:40:30;;;;;;;7.70;4.55;;;28.60;73.90;;;;;;5118886;27;20661;-81
2022/06/05 07:42:58;;;;;;;7.57;4.55;;;28.70;73.70;;;;;;5137004;27;20858;-79
2022/06/05 07:45:27;;;;;;;8.60;4.40;;;28.80;73.70;;;;;;5124579;27;20239;-79
2022/06/05 07:47:58;;;;;;;7.75;4.72;;;28.80;74.10;;;;;;5130915;27;20237;-80
2022/06/05 07:50:26;;;;;;;6.57;4.57;;;28.90;73.80;;;;;;5130857;27;20196;-81
2022/06/05 07:55:41;;;;;;;9.30;4.97;;;28.90;73.80;;;;;;5090023;27;20230;-82
2022/06/05 07:58:09;;;;;;;8.68;4.80;;;28.90;73.30;;;;;;5139706;27;20639;-77
2022/06/05 08:00:38;;;;;;;9.02;4.82;;;28.90;72.90;;;;;;5127028;27;20209;-81
2022/06/05 08:03:07;;;;;;;7.40;4.88;;;29.00;73.20;;;;;;5121694;27;20223;-85
2022/06/05 08:05:35;;;;;;;6.35;4.68;;;29.00;73.90;;;;;;5132212;27;20208;-81
2022/06/05 08:08:04;;;;;;;11.93;5.50;;;29.00;73.00;;;;;;5130479;27;20200;-79
2022/06/05 08:10:33;;;;;;;8.40;5.25;;;29.00;72.80;;;;;;5125586;27;20239;-81
2022/06/05 08:13:04;;;;;;;8.60;5.35;;;29.10;73.00;;;;;;5130978;27;20196;-83
2022/06/05 08:15:32;;;;;;;8.70;5.22;;;29.10;72.90;;;;;;5135987;27;20223;-83
2022/06/05 08:18:01;;;;;;;8.65;5.13;;;29.10;72.60;;;;;;5127293;27;20227;-84
2022/06/05 08:20:30;;;;;;;7.75;5.43;;;29.10;72.70;;;;;;5132167;27;20196;-80
2022/06/05 08:22:58;;;;;;;11.23;5.35;;;29.20;73.00;;;;;;5125495;27;20196;-80
2022/06/05 08:25:27;;;;;;;7.97;5.80;;;29.20;72.70;;;;;;5126577;27;20270;-82
2022/06/05 08:27:55;;;;;;;8.60;4.93;;;29.20;72.20;;;;;;5131467;27;20206;-82
2022/06/05 08:30:25;;;;;;;7.70;4.88;;;29.30;72.10;;;;;;5129964;27;20200;-81
2022/06/05 08:32:54;;;;;;;7.30;5.05;;;29.30;71.70;;;;;;5133254;27;20590;-80
2022/06/05 08:35:22;;;;;;;6.22;4.82;;;29.30;71.20;;;;;;5121962;27;20287;-79
2022/06/05 08:43:41;;;;;;;6.82;5.07;;;29.50;70.30;;;;;;5123072;27;20193;-77
2022/06/05 08:46:16;;;;;;;10.05;5.65;;;29.50;70.10;;;;;;5105944;27;20216;-83
2022/06/05 08:48:52;;;;;;;8.05;6.00;;;29.50;70.00;;;;;;5125677;27;20222;-81
2022/06/05 08:51:40;;;;;;;7.10;5.20;;;29.60;70.00;;;;;;5124777;27;20587;-79
2022/06/05 08:54:14;;;;;;;7.88;5.60;;;29.70;70.20;;;;;;5128057;27;20203;-82
2022/06/05 08:56:46;;;;;;;9.38;5.40;;;29.70;70.10;;;;;;5124378;27;20890;-82
2022/06/05 08:59:20;;;;;;;10.88;5.22;;;29.80;69.90;;;;;;5124997;27;20192;-81
2022/06/05 09:01:57;;;;;;;7.03;5.15;;;29.90;69.70;;;;;;5137031;27;20194;-81
2022/06/05 09:04:53;;;;;;;7.20;5.45;;;29.90;69.50;;;;;;5141464;27;20840;-81
2022/06/05 09:07:26;;;;;;;6.97;4.90;;;30.00;69.60;;;;;;5125400;27;20230;-80
2022/06/05 09:09:59;;;;;;;6.38;5.00;;;30.10;69.70;;;;;;5141414;27;20198;-83
2022/06/05 09:12:38;;;;;;;8.35;4.65;;;30.20;69.40;;;;;;5131924;27;20223;-84
2022/06/05 09:15:16;;;;;;;6.32;4.82;;;30.20;68.00;;;;;;5138130;27;20701;-85
2022/06/05 09:17:55;;;;;;;10.38;5.70;;;30.30;67.00;;;;;;5119285;27;20232;-85
2022/06/05 09:20:34;;;;;;;6.32;4.63;;;30.30;67.00;;;;;;5083828;27;20279;-81
2022/06/05 09:23:19;;;;;;;7.75;4.78;;;30.30;66.90;;;;;;5115043;27;20224;-82
2022/06/05 09:25:57;;;;;;;11.75;5.45;;;30.40;66.20;;;;;;5131214;27;20245;-82
2022/06/05 09:28:55;;;;;;;8.90;5.32;;;30.50;66.30;;;;;;5120823;27;20198;-78
2022/06/05 09:31:51;;;;;;;9.63;5.35;;;30.60;66.30;;;;;;5122806;27;20220;-81
2022/06/05 09:34:29;;;;;;;7.88;5.40;;;30.60;66.50;;;;;;5124507;27;20343;-81
2022/06/05 09:37:12;;;;;;;12.55;5.88;;;30.50;66.00;;;;;;5138275;27;20248;-81
2022/06/05 09:39:45;;;;;;;7.18;5.53;;;30.50;66.20;;;;;;5128300;27;20192;-85
2022/06/05 09:42:44;;;;;;;6.95;4.75;;;30.60;66.20;;;;;;5125480;27;20377;-79
2022/06/05 09:45:43;;;;;;;7.18;4.32;;;30.60;66.20;;;;;;5125625;27;20193;-82
2022/06/05 09:48:24;;;;;;;12.77;8.32;;;30.60;65.80;;;;;;5107951;27;20195;-84
2022/06/05 09:50:54;;;;;;;7.68;5.25;;;30.70;64.80;;;;;;5089350;27;20882;-80
2022/06/05 09:53:30;;;;;;;8.10;4.40;;;30.80;65.30;;;;;;5123960;27;20192;-83
2022/06/05 09:56:08;;;;;;;9.48;4.63;;;30.80;65.30;;;;;;5125376;27;20198;-82
2022/06/05 09:58:51;;;;;;;8.70;4.90;;;30.80;65.40;;;;;;5121826;27;20189;-80
2022/06/05 10:01:24;;;;;;;10.23;4.93;;;30.90;65.40;;;;;;5126272;27;20192;-81
2022/06/05 10:03:53;;;;;;;8.02;4.28;;;31.00;64.90;;;;;;5123125;27;20196;-82
2022/06/05 10:06:31;;;;;;;6.32;4.57;;;31.10;64.40;;;;;;5125606;27;20701;-82
2022/06/05 10:09:16;;;;;;;8.85;4.45;;;31.10;64.40;;;;;;5120623;27;20192;-83
2022/06/05 10:11:53;;;;;;;8.75;5.28;;;31.20;64.10;;;;;;5118176;27;20703;-83
2022/06/05 10:14:39;;;;;;;5.88;4.50;;;31.20;63.00;;;;;;5125099;27;20654;-81
2022/06/05 10:17:40;;;;;;;6.68;4.00;;;31.30;62.90;;;;;;5125340;27;20192;-80
2022/06/05 10:20:50;;;;;;;6.70;4.10;;;31.40;62.60;;;;;;5125854;27;20180;-83
2022/06/05 10:23:38;;;;;;;7.40;4.63;;;31.40;62.40;;;;;;5124449;27;20559;-80
2022/06/05 10:26:23;;;;;;;12.50;4.53;;;31.50;62.10;;;;;;5108362;27;20277;-80
2022/06/05 10:29:09;;;;;;;7.68;4.32;;;31.50;61.40;;;;;;5122665;27;20279;-80
2022/06/05 10:31:41;;;;;;;6.95;3.63;;;31.60;61.20;;;;;;5123904;27;20207;-79
2022/06/05 10:34:20;;;;;;;4.95;3.17;;;31.60;60.70;;;;;;5135051;27;20252;-79
2022/06/05 10:36:57;;;;;;;5.45;3.30;;;31.70;60.50;;;;;;5120910;27;20203;-79
2022/06/05 10:39:34;;;;;;;6.68;3.97;;;31.70;60.40;;;;;;5144923;27;20195;-79
2022/06/05 10:42:30;;;;;;;4.55;3.38;;;31.80;59.90;;;;;;5126162;27;20188;-79
2022/06/05 10:45:16;;;;;;;5.07;3.33;;;31.80;59.10;;;;;;5138661;27;20195;-79
2022/06/05 10:48:11;;;;;;;4.53;3.20;;;31.90;57.60;;;;;;5122321;27;20236;-80
2022/06/05 10:50:49;;;;;;;6.57;3.20;;;31.90;57.50;;;;;;5128472;27;20196;-81
2022/06/05 10:53:23;;;;;;;6.47;3.40;;;32.00;57.20;;;;;;5135925;27;20715;-80
2022/06/05 10:56:19;;;;;;;7.82;3.60;;;32.00;57.50;;;;;;5130303;27;20202;-80
2022/06/05 10:58:59;;;;;;;4.68;3.30;;;32.00;57.60;;;;;;5116842;27;20185;-78
2022/06/05 11:01:49;;;;;;;8.32;3.70;;;32.10;57.60;;;;;;5102792;27;20204;-80
2022/06/05 11:04:49;;;;;;;6.00;3.35;;;32.10;57.30;;;;;;5136649;27;20217;-80
2022/06/05 11:07:38;;;;;;;6.68;3.97;;;32.10;57.30;;;;;;5131846;27;20219;-77
2022/06/05 11:10:17;;;;;;;6.93;3.80;;;32.20;57.30;;;;;;5132593;27;20245;-79
2022/06/05 11:15:54;;;;;;;6.90;3.80;;;32.20;57.30;;;;;;5121884;27;20220;-80
2022/06/05 11:18:30;;;;;;;8.45;3.63;;;32.30;57.60;;;;;;5127513;27;20180;-77
2022/06/05 11:21:01;;;;;;;5.90;3.92;;;32.30;57.60;;;;;;5099858;28;20185;-79
2022/06/05 11:23:35;;;;;;;5.93;3.42;;;32.40;57.30;;;;;;5133080;27;20275;-80
2022/06/05 11:26:11;;;;;;;9.75;4.10;;;32.40;56.80;;;;;;5123518;27;21384;-79
2022/06/05 11:29:00;;;;;;;5.78;3.50;;;32.50;56.90;;;;;;5124777;27;20208;-79
2022/06/05 11:31:44;;;;;;;9.18;3.58;;;32.60;56.70;;;;;;5138481;27;20645;-77
2022/06/05 11:34:24;;;;;;;5.95;3.70;;;32.60;55.90;;;;;;5134576;27;20202;-79
2022/06/05 11:36:54;;;;;;;8.00;3.75;;;32.60;55.50;;;;;;5134278;27;20188;-79
2022/06/05 11:39:32;;;;;;;5.20;3.15;;;32.70;55.50;;;;;;5127619;27;20247;-78
2022/06/05 11:42:20;;;;;;;8.38;3.20;;;32.70;55.60;;;;;;5129257;27;20192;-78
2022/06/05 11:44:54;;;;;;;8.85;3.75;;;32.70;55.40;;;;;;5123117;27;20184;-77
2022/06/05 11:47:38;;;;;;;5.00;3.35;;;32.80;55.10;;;;;;5130754;27;20287;-79
2022/06/05 11:50:17;;;;;;;11.40;3.97;;;32.90;55.00;;;;;;5123500;27;20196;-78
2022/06/05 11:52:54;;;;;;;10.07;3.67;;;33.10;54.90;;;;;;5128505;27;20199;-78
2022/06/05 11:55:32;;;;;;;4.82;3.42;;;33.20;55.10;;;;;;5120835;27;20757;-82
2022/06/05 11:58:07;;;;;;;7.63;3.67;;;33.20;54.70;;;;;;5124606;27;20201;-79
2022/06/05 12:00:41;;;;;;;4.68;3.63;;;33.30;55.00;;;;;;5118703;27;20188;-80
2022/06/05 12:03:16;;;;;;;8.50;3.33;;;33.30;54.90;;;;;;5106295;27;20814;-78
2022/06/05 12:05:55;;;;;;;5.80;3.78;;;33.30;54.70;;;;;;5117885;27;20191;-78
2022/06/05 12:08:53;;;;;;;6.65;3.45;;;33.20;53.60;;;;;;5123973;27;20204;-79
2022/06/05 12:11:41;;;;;;;6.35;3.53;;;33.20;53.80;;;;;;5136033;27;20196;-78
2022/06/05 12:14:22;;;;;;;5.32;3.60;;;33.30;53.80;;;;;;5115735;27;20193;-77
2022/06/05 12:16:57;;;;;;;4.70;3.33;;;33.20;53.00;;;;;;5119133;27;20714;-77
2022/06/05 12:20:11;;;;;;;7.65;3.60;;;33.30;53.30;;;;;;5129073;27;20187;-78
2022/06/05 12:26:02;;;;;;;5.45;3.30;;;33.40;53.60;;;;;;5102104;27;20790;-77
2022/06/05 12:28:52;;;;;;;4.43;3.45;;;33.30;53.10;;;;;;5106344;27;20656;-78
2022/06/05 12:31:24;;;;;;;6.43;3.30;;;33.20;53.70;;;;;;5099909;27;20233;-77
2022/06/05 12:34:02;;;;;;;4.82;3.50;;;33.30;53.90;;;;;;5118245;27;20196;-78
2022/06/05 12:36:39;;;;;;;5.18;2.97;;;33.30;53.60;;;;;;5115791;27;20273;-78
2022/06/05 12:39:17;;;;;;;5.65;3.80;;;33.20;53.60;;;;;;5119021;27;20195;-79
2022/06/05 12:41:55;;;;;;;5.40;3.60;;;33.20;53.50;;;;;;5127004;27;20191;-79
2022/06/05 12:44:35;;;;;;;5.95;3.80;;;33.20;54.00;;;;;;5122010;27;20191;-79
2022/06/05 12:47:11;;;;;;;5.45;3.47;;;33.40;54.40;;;;;;5104366;27;20188;-77
2022/06/05 12:50:01;;;;;;;8.32;4.18;;;33.50;54.60;;;;;;5103002;27;20229;-79
2022/06/05 12:52:35;;;;;;;5.57;3.47;;;33.70;54.50;;;;;;5106284;27;20204;-79
2022/06/05 12:55:13;;;;;;;4.80;3.22;;;33.80;54.20;;;;;;5107312;27;20200;-78
2022/06/05 12:57:58;;;;;;;5.38;3.30;;;34.00;53.80;;;;;;5101759;28;20185;-78
2022/06/05 13:00:41;;;;;;;7.43;3.92;;;34.10;53.40;;;;;;5111033;27;20201;-78
2022/06/05 13:03:22;;;;;;;4.43;3.42;;;34.20;53.40;;;;;;5111185;27;20227;-79
2022/06/05 13:05:57;;;;;;;6.80;3.50;;;34.30;53.00;;;;;;5109499;27;20220;-78
2022/06/05 13:08:34;;;;;;;4.03;3.22;;;34.50;53.30;;;;;;5120330;27;20654;-78
2022/06/05 13:11:17;;;;;;;8.93;3.50;;;34.80;53.20;;;;;;5112496;27;20192;-82
2022/06/05 13:14:01;;;;;;;5.35;3.65;;;35.00;53.00;;;;;;5116650;27;20286;-78
2022/06/05 13:16:38;;;;;;;6.60;3.40;;;35.40;52.40;;;;;;5106818;27;20224;-79
2022/06/05 13:19:26;;;;;;;4.32;2.80;;;35.70;51.50;;;;;;5108175;27;20837;-80
2022/06/05 13:22:13;;;;;;;6.60;3.28;;;35.90;50.60;;;;;;5119918;27;20204;-80
2022/06/05 13:25:02;;;;;;;5.97;3.30;;;36.20;50.40;;;;;;5091839;27;20208;-77
2022/06/05 13:27:51;;;;;;;4.18;2.90;;;36.30;49.60;;;;;;5108056;27;20254;-77
2022/06/05 13:30:25;;;;;;;5.15;3.08;;;36.30;49.20;;;;;;5100380;27;20224;-80
2022/06/05 13:33:05;;;;;;;6.68;3.60;;;36.30;48.70;;;;;;5123583;27;20762;-80
2022/06/05 13:35:42;;;;;;;9.18;3.38;;;36.20;48.30;;;;;;5102341;27;20280;-83
2022/06/05 13:38:22;;;;;;;5.03;3.20;;;36.20;48.30;;;;;;5106796;27;20200;-81
2022/06/05 13:41:02;;;;;;;7.85;3.72;;;36.10;48.40;;;;;;5105558;28;20196;-80